createdAt,value
2019-05-21T00:02:04.873Z,39.33
2019-05-21T00:04:34.727Z,36.23
2019-05-21T00:07:04.625Z,39.70
2019-05-21T00:09:34.478Z,38.07
2019-05-21T00:12:04.455Z,35.87
2019-05-21T00:14:34.385Z,35.30
2019-05-21T00:17:04.254Z,36.40
2019-05-21T00:19:34.116Z,37.20
2019-05-21T00:22:04.048Z,38.47
2019-05-21T00:24:33.900Z,32.97
2019-05-21T00:27:03.938Z,34.07
2019-05-21T00:30:10.172Z,35.50
2019-05-21T00:33:16.320Z,31.83
2019-05-21T00:36:24.240Z,35.17
2019-05-21T00:39:30.574Z,34.80
2019-05-21T00:42:03.862Z,33.40
2019-05-21T00:44:35.928Z,36.30
2019-05-21T00:47:07.005Z,37.13
2019-05-21T00:49:36.960Z,33.93
2019-05-21T00:52:09.037Z,30.43
2019-05-21T00:54:38.601Z,32.63
2019-05-21T00:57:08.596Z,32.17
2019-05-21T00:59:39.522Z,31.57
2019-05-21T01:02:09.472Z,32.27
2019-05-21T01:04:39.454Z,26.13
2019-05-21T01:07:09.328Z,28.20
2019-05-21T01:09:39.305Z,30.17
2019-05-21T01:12:09.252Z,29.73
2019-05-21T01:14:39.286Z,28.97
2019-05-21T01:17:09.220Z,29.00
2019-05-21T01:19:39.084Z,30.30
2019-05-21T01:22:08.997Z,29.47
2019-05-21T01:24:38.862Z,29.10
2019-05-21T01:27:08.731Z,28.03
2019-05-21T01:29:38.600Z,26.93
2019-05-21T01:32:08.462Z,27.50
2019-05-21T01:34:38.279Z,27.83
2019-05-21T01:37:08.201Z,26.20
2019-05-21T01:39:38.086Z,24.80
2019-05-21T01:42:07.943Z,26.10
2019-05-21T01:44:38.770Z,24.00
2019-05-21T01:47:08.628Z,27.33
2019-05-21T01:49:38.517Z,25.20
2019-05-21T01:52:08.382Z,27.73
2019-05-21T01:54:38.325Z,25.87
2019-05-21T01:57:08.212Z,27.70
2019-05-21T01:59:37.992Z,25.63
2019-05-21T02:02:07.922Z,24.47
2019-05-21T02:04:37.867Z,25.30
2019-05-21T02:07:07.811Z,22.00
2019-05-21T02:09:56.894Z,23.87
2019-05-21T02:12:26.758Z,24.67
2019-05-21T02:14:56.640Z,23.23
2019-05-21T02:17:26.708Z,23.40
2019-05-21T02:19:56.629Z,23.73
2019-05-21T02:22:26.618Z,24.20
2019-05-21T02:24:56.574Z,23.17
2019-05-21T02:27:26.446Z,21.53
2019-05-21T02:29:56.427Z,19.40
2019-05-21T02:32:26.283Z,20.73
2019-05-21T02:34:56.206Z,21.50
2019-05-21T02:37:26.187Z,20.63
2019-05-21T02:39:56.047Z,21.23
2019-05-21T02:42:25.972Z,21.77
2019-05-21T02:44:56.688Z,21.07
2019-05-21T02:47:26.568Z,20.73
2019-05-21T02:49:56.358Z,22.57
2019-05-21T02:52:26.134Z,21.97
2019-05-21T02:54:56.034Z,19.33
2019-05-21T02:57:38.183Z,18.60
2019-05-21T03:00:16.839Z,21.70
2019-05-21T03:02:46.774Z,21.33
2019-05-21T03:05:16.742Z,20.13
2019-05-21T03:07:46.661Z,18.87
2019-05-21T03:10:16.619Z,18.53
2019-05-21T03:12:46.603Z,19.10
2019-05-21T03:15:16.470Z,20.70
2019-05-21T03:17:46.386Z,18.87
2019-05-21T03:20:16.247Z,19.10
2019-05-21T03:22:46.101Z,17.57
2019-05-21T03:25:16.132Z,17.87
2019-05-21T03:27:46.091Z,20.17
2019-05-21T03:30:15.988Z,18.90
2019-05-21T03:32:45.940Z,17.77
2019-05-21T03:35:15.881Z,19.53
2019-05-21T03:37:45.732Z,18.10
2019-05-21T03:40:15.786Z,16.80
2019-05-21T03:42:45.674Z,17.93
2019-05-21T03:45:16.471Z,18.77
2019-05-21T03:47:46.434Z,18.97
2019-05-21T03:50:16.303Z,16.00
2019-05-21T03:52:46.162Z,16.33
2019-05-21T03:55:16.184Z,17.97
2019-05-21T03:57:46.123Z,16.03
2019-05-21T04:00:15.924Z,17.57
2019-05-21T04:02:45.779Z,16.43
2019-05-21T04:05:25.172Z,16.30
2019-05-21T04:07:55.139Z,16.40
2019-05-21T04:10:25.134Z,16.27
2019-05-21T04:13:08.534Z,16.13
2019-05-21T04:15:47.213Z,14.47
2019-05-21T04:18:22.366Z,15.67
2019-05-21T04:20:52.288Z,15.80
2019-05-21T04:23:22.231Z,15.43
2019-05-21T04:25:52.128Z,15.60
2019-05-21T04:28:22.280Z,14.50
2019-05-21T04:30:52.246Z,15.53
2019-05-21T04:33:22.095Z,17.60
2019-05-21T04:35:51.943Z,15.23
2019-05-21T04:38:21.799Z,16.63
2019-05-21T04:40:51.687Z,14.70
2019-05-21T04:43:21.665Z,14.83
2019-05-21T04:45:52.529Z,15.17
2019-05-21T04:48:22.486Z,15.20
2019-05-21T04:50:52.335Z,14.03
2019-05-21T04:53:22.283Z,14.03
2019-05-21T04:55:52.215Z,14.30
2019-05-21T04:58:22.193Z,13.60
2019-05-21T05:00:52.076Z,14.50
2019-05-21T05:03:21.922Z,14.97
2019-05-21T05:05:51.903Z,13.97
2019-05-21T05:08:21.861Z,14.13
2019-05-21T05:10:51.794Z,12.73
2019-05-21T05:13:21.686Z,12.83
2019-05-21T05:15:51.551Z,13.50
2019-05-21T05:18:21.422Z,14.23
2019-05-21T05:20:51.314Z,14.03
2019-05-21T05:23:21.172Z,14.47
2019-05-21T05:25:51.162Z,12.60
2019-05-21T05:28:21.013Z,14.13
2019-05-21T05:30:50.949Z,13.73
2019-05-21T05:33:21.067Z,13.00
2019-05-21T05:35:50.858Z,13.60
2019-05-21T05:38:20.727Z,13.50
2019-05-21T05:40:50.646Z,13.03
2019-05-21T05:43:20.808Z,11.93
2019-05-21T05:45:50.804Z,13.17
2019-05-21T05:48:21.237Z,12.93
2019-05-21T05:50:53.294Z,13.03
2019-05-21T05:53:23.186Z,13.10
2019-05-21T05:55:52.977Z,17.13
2019-05-21T05:58:23.022Z,13.07
2019-05-21T06:00:53.026Z,13.17
2019-05-21T06:03:22.946Z,12.77
2019-05-21T06:05:52.870Z,17.57
2019-05-21T06:08:22.825Z,14.30
2019-05-21T06:10:52.783Z,14.43
2019-05-21T06:13:22.673Z,17.23
2019-05-21T06:15:52.607Z,13.27
2019-05-21T06:18:22.466Z,17.87
2019-05-21T06:20:52.395Z,13.30
2019-05-21T06:23:29.620Z,13.30
2019-05-21T06:25:59.567Z,16.37
2019-05-21T06:28:29.497Z,14.03
2019-05-21T06:30:59.373Z,18.37
2019-05-21T06:33:29.250Z,16.43
2019-05-21T06:35:59.105Z,14.23
2019-05-21T06:38:29.030Z,16.27
2019-05-21T06:40:58.914Z,12.17
2019-05-21T06:43:28.902Z,16.33
2019-05-21T06:45:58.679Z,13.90
2019-05-21T06:48:28.530Z,13.47
2019-05-21T06:50:58.470Z,13.47
2019-05-21T06:53:28.470Z,14.60
2019-05-21T06:55:58.424Z,13.10
2019-05-21T06:58:28.448Z,11.67
2019-05-21T07:00:58.383Z,12.77
2019-05-21T07:03:28.239Z,9.20
2019-05-21T07:05:59.548Z,10.43
2019-05-21T07:08:34.485Z,10.70
2019-05-21T07:11:01.331Z,11.27
2019-05-21T07:13:31.321Z,11.00
2019-05-21T07:16:01.242Z,11.83
2019-05-21T07:18:31.090Z,9.87
2019-05-21T07:21:01.007Z,13.53
2019-05-21T07:23:30.850Z,10.77
2019-05-21T07:26:00.733Z,11.50
2019-05-21T07:28:30.670Z,11.60
2019-05-21T07:31:00.586Z,13.33
2019-05-21T07:33:30.471Z,9.97
2019-05-21T07:36:00.251Z,10.33
2019-05-21T07:38:30.258Z,11.57
2019-05-21T07:41:00.113Z,9.60
2019-05-21T07:43:30.047Z,8.97
2019-05-21T07:46:00.074Z,11.07
2019-05-21T07:48:29.961Z,11.80
2019-05-21T07:50:59.912Z,9.73
2019-05-21T07:53:29.950Z,10.13
2019-05-21T07:55:59.848Z,8.63
2019-05-21T07:58:29.744Z,7.43
2019-05-21T08:01:01.526Z,6.77
2019-05-21T08:03:31.379Z,8.33
2019-05-21T08:06:01.234Z,8.73
2019-05-21T08:08:31.354Z,7.37
2019-05-21T08:11:01.278Z,8.83
2019-05-21T08:13:31.132Z,8.23
2019-05-21T08:16:01.010Z,7.93
2019-05-21T08:18:31.038Z,13.77
2019-05-21T08:21:00.898Z,6.87
2019-05-21T08:23:30.811Z,10.23
2019-05-21T08:26:00.675Z,9.70
2019-05-21T08:28:30.583Z,7.27
2019-05-21T08:31:02.322Z,10.97
2019-05-21T08:33:32.587Z,11.07
2019-05-21T08:36:02.466Z,13.20
2019-05-21T08:38:33.509Z,10.87
2019-05-21T08:41:03.445Z,9.77
2019-05-21T08:43:33.294Z,8.43
2019-05-21T08:46:03.219Z,10.23
2019-05-21T08:48:33.070Z,7.40
2019-05-21T08:51:03.005Z,8.23
2019-05-21T08:53:32.888Z,15.67
2019-05-21T08:56:02.798Z,7.53
2019-05-21T08:58:32.659Z,8.30
2019-05-21T09:01:02.627Z,9.63
2019-05-21T09:03:32.619Z,11.73
2019-05-21T09:06:02.609Z,7.90
2019-05-21T09:08:32.542Z,7.83
2019-05-21T09:11:02.590Z,14.73
2019-05-21T09:13:32.902Z,6.30
2019-05-21T09:16:02.747Z,7.97
2019-05-21T09:18:32.627Z,7.57
2019-05-21T09:21:02.542Z,6.60
2019-05-21T09:23:32.574Z,9.40
2019-05-21T09:26:02.437Z,6.03
2019-05-21T09:28:32.304Z,8.87
2019-05-21T09:31:02.392Z,7.43
2019-05-21T09:33:33.574Z,7.67
2019-05-21T09:36:03.482Z,8.33
2019-05-21T09:38:33.410Z,6.07
2019-05-21T09:41:03.369Z,10.90
2019-05-21T09:43:33.292Z,7.70
2019-05-21T09:46:04.237Z,6.63
2019-05-21T09:48:34.116Z,7.57
2019-05-21T09:51:04.055Z,7.07
2019-05-21T09:53:33.992Z,6.07
2019-05-21T09:56:22.970Z,6.10
2019-05-21T09:58:55.672Z,5.97
2019-05-21T10:01:32.195Z,7.17
2019-05-21T10:04:02.066Z,6.23
2019-05-21T10:06:31.939Z,7.67
2019-05-21T10:09:01.791Z,6.33
2019-05-21T10:11:33.328Z,6.83
2019-05-21T10:14:03.338Z,5.83
2019-05-21T10:16:33.287Z,6.20
2019-05-21T10:19:03.224Z,8.73
2019-05-21T10:21:33.096Z,7.27
2019-05-21T10:24:03.023Z,6.63
2019-05-21T10:26:33.048Z,12.60
2019-05-21T10:29:03.039Z,7.73
2019-05-21T10:31:33.010Z,6.50
2019-05-21T10:34:02.861Z,7.17
2019-05-21T10:36:32.784Z,6.33
2019-05-21T10:39:02.735Z,6.17
2019-05-21T10:41:33.859Z,8.70
2019-05-21T10:44:03.734Z,7.57
2019-05-21T10:46:33.606Z,8.77
2019-05-21T10:49:03.606Z,13.07
2019-05-21T10:51:33.491Z,8.60
2019-05-21T10:54:03.983Z,8.97
2019-05-21T10:56:47.321Z,6.83
2019-05-21T10:59:05.617Z,9.07
2019-05-21T11:02:12.902Z,10.37
2019-05-21T11:04:54.043Z,10.17
2019-05-21T11:07:25.046Z,9.50
2019-05-21T11:09:56.062Z,9.80
2019-05-21T11:12:26.212Z,8.23
2019-05-21T11:14:56.145Z,9.30
2019-05-21T11:17:26.023Z,9.13
2019-05-21T11:19:55.867Z,10.50
2019-05-21T11:22:25.870Z,10.50
2019-05-21T11:24:55.813Z,9.03
2019-05-21T11:27:25.673Z,9.43
2019-05-21T11:29:55.569Z,12.40
2019-05-21T11:32:25.577Z,9.87
2019-05-21T11:34:55.636Z,10.73
2019-05-21T11:37:25.609Z,9.93
2019-05-21T11:39:55.544Z,9.60
2019-05-21T11:42:25.543Z,11.00
2019-05-21T11:44:55.480Z,9.23
2019-05-21T11:47:25.476Z,11.73
2019-05-21T11:49:55.393Z,15.50
2019-05-21T11:52:25.374Z,12.50
2019-05-21T11:54:56.042Z,16.67
2019-05-21T11:57:27.136Z,15.33
2019-05-21T11:59:57.159Z,14.30
2019-05-21T12:02:27.085Z,10.60
2019-05-21T12:04:57.467Z,12.40
2019-05-21T12:07:27.508Z,13.50
2019-05-21T12:09:57.439Z,13.17
2019-05-21T12:12:27.298Z,15.60
2019-05-21T12:14:57.087Z,18.17
2019-05-21T12:17:27.026Z,15.73
2019-05-21T12:19:56.885Z,14.63
2019-05-21T12:22:26.919Z,12.03
2019-05-21T12:24:56.860Z,14.77
2019-05-21T12:27:26.789Z,14.43
2019-05-21T12:29:56.648Z,12.93
2019-05-21T12:32:26.679Z,13.20
2019-05-21T12:34:56.607Z,15.47
2019-05-21T12:37:26.494Z,16.73
2019-05-21T12:39:56.370Z,14.23
2019-05-21T12:42:26.566Z,12.23
2019-05-21T12:44:56.450Z,13.73
2019-05-21T12:47:26.387Z,14.77
2019-05-21T12:49:56.318Z,10.47
2019-05-21T12:52:26.170Z,10.97
2019-05-21T12:54:56.046Z,18.13
2019-05-21T12:57:25.977Z,13.03
2019-05-21T12:59:55.881Z,13.43
2019-05-21T13:02:25.762Z,12.50
2019-05-21T13:04:55.695Z,10.70
2019-05-21T13:07:25.649Z,9.73
2019-05-21T13:09:55.557Z,13.50
2019-05-21T13:12:25.491Z,11.73
2019-05-21T13:14:55.446Z,10.23
2019-05-21T13:17:25.394Z,11.40
2019-05-21T13:19:55.391Z,10.37
2019-05-21T13:22:25.340Z,10.07
2019-05-21T13:24:56.366Z,9.90
2019-05-21T13:27:26.289Z,8.00
2019-05-21T13:29:56.239Z,8.30
2019-05-21T13:32:26.259Z,8.93
2019-05-21T13:34:56.900Z,13.57
2019-05-21T13:37:26.889Z,10.63
2019-05-21T13:39:56.904Z,12.43
2019-05-21T13:42:27.012Z,12.53
2019-05-21T13:44:56.955Z,9.10
2019-05-21T13:47:26.814Z,10.03
2019-05-21T13:49:56.634Z,10.87
2019-05-21T13:52:26.550Z,10.33
2019-05-21T13:54:56.497Z,9.10
2019-05-21T13:57:26.529Z,8.70
2019-05-21T13:59:56.517Z,9.97
2019-05-21T14:02:26.511Z,7.87
2019-05-21T14:04:56.379Z,8.17
2019-05-21T14:07:26.382Z,7.90
2019-05-21T14:10:13.116Z,9.87
2019-05-21T14:12:28.005Z,8.47
2019-05-21T14:14:59.614Z,8.07
2019-05-21T14:17:29.538Z,11.57
2019-05-21T14:19:59.730Z,12.80
2019-05-21T14:22:30.077Z,21.47
2019-05-21T14:25:00.069Z,9.57
2019-05-21T14:27:43.926Z,8.80
2019-05-21T14:30:01.719Z,7.87
2019-05-21T14:32:31.643Z,7.77
2019-05-21T14:35:02.430Z,8.17
2019-05-21T14:37:32.557Z,7.57
2019-05-21T14:40:03.556Z,8.10
2019-05-21T14:42:33.519Z,12.13
2019-05-21T14:45:04.095Z,8.33
2019-05-21T14:47:34.187Z,12.47
2019-05-21T14:50:04.321Z,10.83
2019-05-21T14:52:34.471Z,11.37
2019-05-21T14:55:04.958Z,8.47
2019-05-21T14:57:35.170Z,6.97
2019-05-21T15:00:07.290Z,8.17
2019-05-21T15:02:37.486Z,8.23
2019-05-21T15:05:07.488Z,9.83
2019-05-21T15:07:37.474Z,9.87
2019-05-21T15:10:07.486Z,7.13
2019-05-21T15:12:37.414Z,7.90
2019-05-21T15:15:07.357Z,9.23
2019-05-21T15:17:38.622Z,9.37
2019-05-21T15:20:13.476Z,8.23
2019-05-21T15:22:43.691Z,7.87
2019-05-21T15:25:13.945Z,7.27
2019-05-21T15:27:44.171Z,8.50
2019-05-21T15:30:14.171Z,8.03
2019-05-21T15:32:44.131Z,17.03
2019-05-21T15:35:14.175Z,7.23
2019-05-21T15:37:45.092Z,9.63
2019-05-21T15:40:15.370Z,7.53
2019-05-21T15:42:45.431Z,7.63
2019-05-21T15:45:15.626Z,7.93
2019-05-21T15:47:45.662Z,10.20
2019-05-21T15:50:15.630Z,10.13
2019-05-21T15:52:45.511Z,11.47
2019-05-21T15:55:15.587Z,10.43
2019-05-21T15:57:46.597Z,14.57
2019-05-21T16:00:16.716Z,9.43
2019-05-21T16:02:46.738Z,13.07
2019-05-21T16:05:16.728Z,8.63
2019-05-21T16:07:46.667Z,8.80
2019-05-21T16:10:16.597Z,8.10
2019-05-21T16:12:46.483Z,8.67
2019-05-21T16:15:16.451Z,7.93
2019-05-21T16:17:46.475Z,9.50
2019-05-21T16:20:17.974Z,9.80
2019-05-21T16:22:47.905Z,8.40
2019-05-21T16:25:17.936Z,9.10
2019-05-21T16:27:47.850Z,10.27
2019-05-21T16:30:17.859Z,9.83
2019-05-21T16:32:48.008Z,6.20
2019-05-21T16:35:18.066Z,9.70
2019-05-21T16:37:48.010Z,11.40
2019-05-21T16:40:17.986Z,8.47
2019-05-21T16:42:48.009Z,7.40
2019-05-21T16:45:18.038Z,9.37
2019-05-21T16:47:47.975Z,10.00
2019-05-21T16:50:17.946Z,6.70
2019-05-21T16:52:47.878Z,7.57
2019-05-21T16:55:17.734Z,8.93
2019-05-21T16:57:47.692Z,7.60
2019-05-21T17:00:18.037Z,8.17
2019-05-21T17:02:48.102Z,7.43
2019-05-21T17:05:18.010Z,6.97
2019-05-21T17:07:47.886Z,7.97
2019-05-21T17:10:17.825Z,8.83
2019-05-21T17:12:47.837Z,6.83
2019-05-21T17:15:18.020Z,12.40
2019-05-21T17:17:47.958Z,12.60
2019-05-21T17:20:17.907Z,15.03
2019-05-21T17:22:47.850Z,15.30
2019-05-21T17:25:17.802Z,8.40
2019-05-21T17:27:47.833Z,12.60
2019-05-21T17:30:17.764Z,9.43
2019-05-21T17:32:47.731Z,14.90
2019-05-21T17:35:17.632Z,28.37
2019-05-21T17:37:47.610Z,144.70
2019-05-21T17:40:17.615Z,158.37
2019-05-21T17:42:47.699Z,289.20
2019-05-21T17:45:17.730Z,289.83
2019-05-21T17:47:47.738Z,445.33
2019-05-21T17:50:17.741Z,387.17
2019-05-21T17:52:47.703Z,469.80
2019-05-21T17:55:17.661Z,415.63
2019-05-21T17:57:47.656Z,451.43
2019-05-21T18:00:19.282Z,382.60
2019-05-21T18:02:49.414Z,398.77
2019-05-21T18:05:19.350Z,378.47
2019-05-21T18:07:49.287Z,371.67
2019-05-21T18:10:19.384Z,361.10
2019-05-21T18:12:50.139Z,362.90
2019-05-21T18:15:20.287Z,353.50
2019-05-21T18:17:50.230Z,357.63
2019-05-21T18:20:21.162Z,327.63
2019-05-21T18:22:54.129Z,319.70
2019-05-21T18:25:24.179Z,308.97
2019-05-21T18:27:54.126Z,315.43
2019-05-21T18:30:24.051Z,299.03
2019-05-21T18:32:57.286Z,272.43
2019-05-21T18:35:27.170Z,259.77
2019-05-21T18:37:57.151Z,273.50
2019-05-21T18:40:27.159Z,255.70
2019-05-21T18:42:57.185Z,247.77
2019-05-21T18:45:27.113Z,246.37
2019-05-21T18:47:57.113Z,241.07
2019-05-21T18:50:35.678Z,232.20
2019-05-21T18:52:58.946Z,240.57
2019-05-21T18:55:29.207Z,230.50
2019-05-21T18:57:59.332Z,252.47
2019-05-21T19:00:30.416Z,242.63
2019-05-21T19:03:00.414Z,231.20
2019-05-21T19:05:30.449Z,226.77
2019-05-21T19:08:00.530Z,220.73
2019-05-21T19:10:30.580Z,225.07
2019-05-21T19:13:01.190Z,204.23
2019-05-21T19:15:31.383Z,212.27
2019-05-21T19:18:01.426Z,204.27
2019-05-21T19:20:31.495Z,191.13
2019-05-21T19:23:01.508Z,188.80
2019-05-21T19:25:31.571Z,194.60
2019-05-21T19:28:01.591Z,188.97
2019-05-21T19:30:31.898Z,189.30
2019-05-21T19:33:01.847Z,188.07
2019-05-21T19:35:33.217Z,187.10
2019-05-21T19:38:03.398Z,186.73
2019-05-21T19:40:33.392Z,186.87
2019-05-21T19:43:03.456Z,186.17
2019-05-21T19:45:33.614Z,183.43
2019-05-21T19:48:03.709Z,177.20
2019-05-21T19:50:34.181Z,188.63
2019-05-21T19:53:04.233Z,183.87
2019-05-21T19:55:35.111Z,174.00
2019-05-21T19:58:05.112Z,163.37
2019-05-21T20:00:39.207Z,170.57
2019-05-21T20:03:10.549Z,170.90
2019-05-21T20:05:40.614Z,171.97
2019-05-21T20:08:10.641Z,166.17
2019-05-21T20:10:40.786Z,168.23
2019-05-21T20:13:10.989Z,165.77
2019-05-21T20:15:44.324Z,162.33
2019-05-21T20:18:15.184Z,149.67
2019-05-21T20:20:45.475Z,146.13
2019-05-21T20:23:17.149Z,154.27
2019-05-21T20:25:56.100Z,147.33
2019-05-21T20:28:19.255Z,150.67
2019-05-21T20:30:49.938Z,143.00
2019-05-21T20:33:20.295Z,143.13
2019-05-21T20:35:51.935Z,144.20
2019-05-21T20:38:23.909Z,142.33
2019-05-21T20:40:54.085Z,138.83
2019-05-21T20:43:24.311Z,145.60
2019-05-21T20:45:54.479Z,138.37
2019-05-21T20:48:26.524Z,131.67
2019-05-21T20:50:56.469Z,128.03
2019-05-21T20:53:26.407Z,123.97
2019-05-21T20:55:56.777Z,137.60
2019-05-21T20:58:27.124Z,126.87
2019-05-21T21:01:02.238Z,120.83
2019-05-21T21:03:32.586Z,116.27
2019-05-21T21:06:03.288Z,114.92
2019-05-21T21:08:36.391Z,114.50
2019-05-21T21:11:08.985Z,110.73
2019-05-21T21:13:38.974Z,114.67
2019-05-21T21:16:10.335Z,106.17
2019-05-21T21:18:40.800Z,103.37
2019-05-21T21:21:10.704Z,102.50
2019-05-21T21:23:40.767Z,113.57
2019-05-21T21:26:11.718Z,95.63
2019-05-21T21:28:41.651Z,91.60
2019-05-21T21:31:11.510Z,99.60
2019-05-21T21:33:41.444Z,90.90
2019-05-21T21:36:11.342Z,93.50
2019-05-21T21:38:41.846Z,95.93
2019-05-21T21:41:11.785Z,87.43
2019-05-21T21:43:41.745Z,88.30
2019-05-21T21:46:11.751Z,90.13
2019-05-21T21:48:45.321Z,85.90
2019-05-21T21:51:13.710Z,85.50
2019-05-21T21:53:44.446Z,83.47
2019-05-21T21:56:14.330Z,85.33
2019-05-21T21:58:44.555Z,77.70
2019-05-21T22:01:43.373Z,79.67
2019-05-21T22:04:13.754Z,75.23
2019-05-21T22:06:44.497Z,80.87
2019-05-21T22:09:21.574Z,76.60
2019-05-21T22:11:52.639Z,76.80
2019-05-21T22:14:22.606Z,70.67
2019-05-21T22:16:52.557Z,72.27
2019-05-21T22:19:22.590Z,77.60
2019-05-21T22:21:53.174Z,70.43
2019-05-21T22:24:23.374Z,70.27
2019-05-21T22:26:54.290Z,62.90
2019-05-21T22:29:24.318Z,71.60
2019-05-21T22:31:54.288Z,71.87
2019-05-21T22:34:25.092Z,67.13
2019-05-21T22:36:55.517Z,65.63
2019-05-21T22:39:28.196Z,68.53
2019-05-21T22:41:58.161Z,63.40
2019-05-21T22:44:28.043Z,62.90
2019-05-21T22:46:57.986Z,58.03
2019-05-21T22:49:33.575Z,63.17
2019-05-21T22:51:59.683Z,64.07
2019-05-21T22:54:29.693Z,58.63
2019-05-21T22:56:59.602Z,60.00
2019-05-21T22:59:29.539Z,63.63
2019-05-21T23:02:01.059Z,63.80
2019-05-21T23:04:31.128Z,57.60
2019-05-21T23:07:02.724Z,53.60
2019-05-21T23:09:32.766Z,56.80
2019-05-21T23:12:02.727Z,57.13
2019-05-21T23:14:32.692Z,54.83
2019-05-21T23:17:05.966Z,50.77
2019-05-21T23:19:37.888Z,53.43
2019-05-21T23:22:11.519Z,53.20
2019-05-21T23:24:41.403Z,53.57
2019-05-21T23:27:12.834Z,50.07
2019-05-21T23:29:43.207Z,51.87
2019-05-21T23:32:13.938Z,46.60
2019-05-21T23:34:44.309Z,51.70
2019-05-21T23:37:20.986Z,47.33
2019-05-21T23:39:52.946Z,52.43
2019-05-21T23:42:29.549Z,50.37
2019-05-21T23:44:54.770Z,49.73
2019-05-21T23:47:24.787Z,47.07
2019-05-21T23:49:54.739Z,44.33
2019-05-21T23:52:25.205Z,45.80
2019-05-21T23:54:55.085Z,45.10
2019-05-21T23:57:28.026Z,43.33
2019-05-21T23:59:58.260Z,46.10
